createdAt,value
2018-02-09T00:00:20.325Z,1015.94
2018-02-09T00:01:20.306Z,1016
2018-02-09T00:02:20.290Z,1015.89
2018-02-09T00:03:20.273Z,1015.91
2018-02-09T00:04:20.256Z,1015.93
2018-02-09T00:05:20.238Z,1015.94
2018-02-09T00:06:20.224Z,1015.93
2018-02-09T00:07:20.205Z,1015.91
2018-02-09T00:08:20.188Z,1015.86
2018-02-09T00:09:20.171Z,1015.88
2018-02-09T00:10:20.155Z,1015.89
2018-02-09T00:11:20.137Z,1015.9
2018-02-09T00:12:20.119Z,1015.85
2018-02-09T00:13:20.102Z,1015.9
2018-02-09T00:14:20.086Z,1015.89
2018-02-09T00:15:20.069Z,1015.89
2018-02-09T00:16:20.052Z,1015.85
2018-02-09T00:17:20.036Z,1015.85
2018-02-09T00:18:20.018Z,1015.81
2018-02-09T00:19:20.002Z,1015.77
2018-02-09T00:20:19.985Z,1015.79
2018-02-09T00:21:19.967Z,1015.76
2018-02-09T00:22:19.959Z,1015.78
2018-02-09T00:23:19.932Z,1015.73
2018-02-09T00:24:19.916Z,1015.75
2018-02-09T00:25:19.899Z,1015.75
2018-02-09T00:26:19.882Z,1015.79
2018-02-09T00:27:19.873Z,1015.74
2018-02-09T00:28:19.848Z,1015.73
2018-02-09T00:29:19.831Z,1015.75
2018-02-09T00:30:19.814Z,1015.74
2018-02-09T00:31:19.796Z,1015.71
2018-02-09T00:32:19.779Z,1015.72
2018-02-09T00:33:19.763Z,1015.72
2018-02-09T00:34:19.745Z,1015.75
2018-02-09T00:35:19.728Z,1015.81
2018-02-09T00:36:19.712Z,1015.78
2018-02-09T00:37:19.695Z,1015.76
2018-02-09T00:38:19.678Z,1015.82
2018-02-09T00:39:19.661Z,1015.72
2018-02-09T00:40:19.649Z,1015.76
2018-02-09T00:41:19.627Z,1015.79
2018-02-09T00:42:19.610Z,1015.8
2018-02-09T00:43:19.593Z,1015.79
2018-02-09T00:44:19.577Z,1015.77
2018-02-09T00:45:19.558Z,1015.82
2018-02-09T00:46:19.542Z,1015.83
2018-02-09T00:47:19.556Z,1015.91
2018-02-09T00:48:19.509Z,1015.81
2018-02-09T00:49:19.491Z,1015.84
2018-02-09T00:50:19.474Z,1015.77
2018-02-09T00:51:19.457Z,1015.79
2018-02-09T00:52:19.441Z,1015.77
2018-02-09T00:53:19.423Z,1015.77
2018-02-09T00:54:19.406Z,1015.74
2018-02-09T00:55:19.390Z,1015.75
2018-02-09T00:56:19.371Z,1015.73
2018-02-09T00:57:19.355Z,1015.79
2018-02-09T00:58:19.344Z,1015.76
2018-02-09T00:59:19.322Z,1015.73
2018-02-09T01:00:19.304Z,1015.7
2018-02-09T01:01:19.287Z,1015.73
2018-02-09T01:02:19.271Z,1015.73
2018-02-09T01:03:19.254Z,1015.71
2018-02-09T01:04:19.238Z,1015.67
2018-02-09T01:05:19.223Z,1015.72
2018-02-09T01:06:19.202Z,1015.71
2018-02-09T01:07:19.185Z,1015.69
2018-02-09T01:08:19.168Z,1015.71
2018-02-09T01:09:19.152Z,1015.77
2018-02-09T01:10:19.135Z,1015.72
2018-02-09T01:11:19.117Z,1015.69
2018-02-09T01:12:19.100Z,1015.69
2018-02-09T01:13:19.084Z,1015.68
2018-02-09T01:14:19.067Z,1015.62
2018-02-09T01:15:19.060Z,1015.59
2018-02-09T01:16:19.034Z,1015.61
2018-02-09T01:17:19.017Z,1015.57
2018-02-09T01:18:18.999Z,1015.61
2018-02-09T01:19:18.982Z,1015.54
2018-02-09T01:20:18.966Z,1015.55
2018-02-09T01:21:18.988Z,1015.56
2018-02-09T01:22:18.931Z,1015.51
2018-02-09T01:23:18.914Z,1015.57
2018-02-09T01:24:18.898Z,1015.5
2018-02-09T01:25:18.881Z,1015.56
2018-02-09T01:26:18.862Z,1015.5
2018-02-09T01:27:18.849Z,1015.5
2018-02-09T01:28:18.830Z,1015.54
2018-02-09T01:29:18.812Z,1015.5
2018-02-09T01:30:18.794Z,1015.44
2018-02-09T01:31:18.778Z,1015.51
2018-02-09T01:32:18.762Z,1015.55
2018-02-09T01:33:18.743Z,1015.48
2018-02-09T01:34:18.727Z,1015.47
2018-02-09T01:35:18.710Z,1015.44
2018-02-09T01:36:18.692Z,1015.44
2018-02-09T01:37:18.676Z,1015.47
2018-02-09T01:38:18.659Z,1015.44
2018-02-09T01:39:18.642Z,1015.47
2018-02-09T01:40:18.625Z,1015.47
2018-02-09T01:41:18.608Z,1015.44
2018-02-09T01:42:18.591Z,1015.39
2018-02-09T01:43:18.574Z,1015.47
2018-02-09T01:44:18.557Z,1015.44
2018-02-09T01:45:18.540Z,1015.48
2018-02-09T01:46:18.523Z,1015.5
2018-02-09T01:47:18.506Z,1015.42
2018-02-09T01:48:18.492Z,1015.48
2018-02-09T01:49:18.472Z,1015.44
2018-02-09T01:50:18.455Z,1015.45
2018-02-09T01:51:18.437Z,1015.47
2018-02-09T01:52:18.421Z,1015.41
2018-02-09T01:53:18.404Z,1015.45
2018-02-09T01:54:18.387Z,1015.45
2018-02-09T01:55:18.369Z,1015.44
2018-02-09T01:56:18.353Z,1015.4
2018-02-09T01:57:18.336Z,1015.38
2018-02-09T01:58:18.319Z,1015.4
2018-02-09T01:59:18.302Z,1015.38
2018-02-09T02:00:18.285Z,1015.42
2018-02-09T02:01:18.268Z,1015.35
2018-02-09T02:02:18.253Z,1015.35
2018-02-09T02:03:18.235Z,1015.37
2018-02-09T02:04:18.217Z,1015.38
2018-02-09T02:05:18.201Z,1015.36
2018-02-09T02:06:18.182Z,1015.4
2018-02-09T02:07:18.166Z,1015.39
2018-02-09T02:08:18.155Z,1015.42
2018-02-09T02:09:18.132Z,1015.39
2018-02-09T02:10:18.114Z,1015.4
2018-02-09T02:11:18.099Z,1015.39
2018-02-09T02:12:18.088Z,1015.41
2018-02-09T02:13:18.064Z,1015.37
2018-02-09T02:14:18.047Z,1015.33
2018-02-09T02:15:18.031Z,1015.36
2018-02-09T02:16:18.016Z,1015.39
2018-02-09T02:17:17.996Z,1015.39
2018-02-09T02:18:17.979Z,1015.33
2018-02-09T02:19:17.962Z,1015.35
2018-02-09T02:20:17.945Z,1015.32
2018-02-09T02:21:17.929Z,1015.27
2018-02-09T02:22:17.911Z,1015.29
2018-02-09T02:23:17.895Z,1015.24
2018-02-09T02:24:17.877Z,1015.29
2018-02-09T02:25:17.860Z,1015.26
2018-02-09T02:26:17.843Z,1015.28
2018-02-09T02:27:17.826Z,1015.26
2018-02-09T02:28:17.810Z,1015.23
2018-02-09T02:29:17.792Z,1015.23
2018-02-09T02:30:17.776Z,1015.18
2018-02-09T02:31:17.760Z,1015.17
2018-02-09T02:32:17.741Z,1015.22
2018-02-09T02:33:17.725Z,1015.18
2018-02-09T02:34:17.708Z,1015.14
2018-02-09T02:35:17.690Z,1015.11
2018-02-09T02:36:17.674Z,1015.12
2018-02-09T02:37:17.657Z,1015.15
2018-02-09T02:38:17.640Z,1015.17
2018-02-09T02:39:17.622Z,1015.11
2018-02-09T02:40:17.605Z,1015.09
2018-02-09T02:41:17.589Z,1015.13
2018-02-09T02:42:17.571Z,1015.07
2018-02-09T02:43:17.554Z,1015.11
2018-02-09T02:44:17.538Z,1015.04
2018-02-09T02:45:17.521Z,1015.05
2018-02-09T02:46:17.504Z,1014.97
2018-02-09T02:47:17.487Z,1015.01
2018-02-09T02:48:17.469Z,1014.99
2018-02-09T02:49:17.458Z,1014.98
2018-02-09T02:50:17.436Z,1014.96
2018-02-09T02:51:17.419Z,1014.98
2018-02-09T02:52:17.403Z,1014.94
2018-02-09T02:53:17.391Z,1014.92
2018-02-09T02:54:17.368Z,1014.86
2018-02-09T02:55:17.352Z,1014.87
2018-02-09T02:56:17.335Z,1014.79
2018-02-09T02:57:17.317Z,1014.82
2018-02-09T02:58:17.301Z,1014.74
2018-02-09T02:59:17.283Z,1014.75
2018-02-09T03:00:17.268Z,1014.74
2018-02-09T03:01:17.249Z,1014.71
2018-02-09T03:02:17.232Z,1014.71
2018-02-09T03:03:17.216Z,1014.64
2018-02-09T03:04:17.198Z,1014.68
2018-02-09T03:05:17.181Z,1014.65
2018-02-09T03:06:17.164Z,1014.61
2018-02-09T03:07:17.147Z,1014.63
2018-02-09T03:08:17.130Z,1014.6
2018-02-09T03:09:17.113Z,1014.65
2018-02-09T03:10:17.097Z,1014.6
2018-02-09T03:11:17.079Z,1014.59
2018-02-09T03:12:17.062Z,1014.59
2018-02-09T03:13:17.045Z,1014.61
2018-02-09T03:14:17.029Z,1014.6
2018-02-09T03:15:17.011Z,1014.55
2018-02-09T03:16:16.995Z,1014.6
2018-02-09T03:17:16.978Z,1014.61
2018-02-09T03:18:16.961Z,1014.56
2018-02-09T03:19:16.943Z,1014.59
2018-02-09T03:20:16.927Z,1014.59
2018-02-09T03:21:16.910Z,1014.54
2018-02-09T03:22:16.892Z,1014.51
2018-02-09T03:23:16.875Z,1014.55
2018-02-09T03:24:16.858Z,1014.52
2018-02-09T03:25:16.841Z,1014.41
2018-02-09T03:26:16.825Z,1014.44
2018-02-09T03:27:16.808Z,1014.48
2018-02-09T03:28:16.790Z,1014.47
2018-02-09T03:29:16.774Z,1014.46
2018-02-09T03:30:16.757Z,1014.4
2018-02-09T03:31:16.740Z,1014.43
2018-02-09T03:32:16.722Z,1014.42
2018-02-09T03:33:16.705Z,1014.37
2018-02-09T03:34:16.688Z,1014.43
2018-02-09T03:35:16.671Z,1014.45
2018-02-09T03:36:16.655Z,1014.41
2018-02-09T03:37:16.637Z,1014.38
2018-02-09T03:38:16.621Z,1014.36
2018-02-09T03:39:16.604Z,1014.33
2018-02-09T03:40:16.587Z,1014.38
2018-02-09T03:41:16.569Z,1014.38
2018-02-09T03:42:16.553Z,1014.36
2018-02-09T03:43:16.535Z,1014.31
2018-02-09T03:44:16.517Z,1014.38
2018-02-09T03:45:16.501Z,1014.37
2018-02-09T03:46:16.484Z,1014.39
2018-02-09T03:47:16.468Z,1014.3
2018-02-09T03:48:16.453Z,1014.36
2018-02-09T03:49:16.433Z,1014.37
2018-02-09T03:50:16.420Z,1014.37
2018-02-09T03:51:16.399Z,1014.35
2018-02-09T03:52:16.382Z,1014.34
2018-02-09T03:53:16.365Z,1014.32
2018-02-09T03:54:16.348Z,1014.33
2018-02-09T03:55:16.331Z,1014.29
2018-02-09T03:56:16.314Z,1014.27
2018-02-09T03:57:16.297Z,1014.26
2018-02-09T03:58:16.283Z,1014.21
2018-02-09T03:59:16.262Z,1014.19
2018-02-09T04:00:16.246Z,1014.19
2018-02-09T04:01:16.229Z,1014.23
2018-02-09T04:02:16.212Z,1014.17
2018-02-09T04:03:16.195Z,1014.15
2018-02-09T04:04:16.178Z,1014.16
2018-02-09T04:05:16.161Z,1014.14
2018-02-09T04:06:16.143Z,1014.16
2018-02-09T04:07:16.127Z,1014.18
2018-02-09T04:08:16.110Z,1014.12
2018-02-09T04:09:16.093Z,1014.22
2018-02-09T04:10:16.077Z,1014.13
2018-02-09T04:11:16.059Z,1014.21
2018-02-09T04:12:16.042Z,1014.11
2018-02-09T04:13:16.025Z,1014.16
2018-02-09T04:14:16.008Z,1014.18
2018-02-09T04:15:15.990Z,1014.14
2018-02-09T04:16:15.974Z,1014.13
2018-02-09T04:17:15.956Z,1014.19
2018-02-09T04:18:15.939Z,1014.14
2018-02-09T04:19:15.923Z,1014.19
2018-02-09T04:20:15.906Z,1014.14
2018-02-09T04:21:15.889Z,1014.13
2018-02-09T04:22:15.872Z,1014.19
2018-02-09T04:23:15.855Z,1014.15
2018-02-09T04:24:15.838Z,1014.17
2018-02-09T04:25:15.822Z,1014.2
2018-02-09T04:26:15.805Z,1014.14
2018-02-09T04:27:15.788Z,1014.2
2018-02-09T04:28:15.772Z,1014.21
2018-02-09T04:29:15.753Z,1014.22
2018-02-09T04:30:15.737Z,1014.18
2018-02-09T04:31:15.720Z,1014.24
2018-02-09T04:32:15.702Z,1014.2
2018-02-09T04:33:15.686Z,1014.22
2018-02-09T04:34:15.669Z,1014.15
2018-02-09T04:35:15.663Z,1014.19
2018-02-09T04:36:15.639Z,1014.14
2018-02-09T04:37:15.618Z,1014.08
2018-02-09T04:38:15.601Z,1014.08
2018-02-09T04:39:15.585Z,1014.06
2018-02-09T04:40:15.567Z,1014.12
2018-02-09T04:41:15.550Z,1014.12
2018-02-09T04:42:15.533Z,1014.1
2018-02-09T04:43:15.515Z,1014.1
2018-02-09T04:44:15.499Z,1013.97
2018-02-09T04:45:15.482Z,1014.01
2018-02-09T04:46:15.464Z,1014.01
2018-02-09T04:47:15.449Z,1013.99
2018-02-09T04:48:15.432Z,1014.05
2018-02-09T04:49:15.414Z,1014.04
2018-02-09T04:50:15.397Z,1013.99
2018-02-09T04:51:15.380Z,1014.04
2018-02-09T04:52:15.364Z,1014
2018-02-09T04:53:15.346Z,1014.01
2018-02-09T04:54:15.329Z,1013.95
2018-02-09T04:55:15.312Z,1013.96
2018-02-09T04:56:15.295Z,1014
2018-02-09T04:57:15.278Z,1013.94
2018-02-09T04:58:15.261Z,1013.85
2018-02-09T04:59:15.244Z,1013.93
2018-02-09T05:00:15.227Z,1013.91
2018-02-09T05:01:15.210Z,1013.8
2018-02-09T05:02:15.194Z,1013.84
2018-02-09T05:03:15.177Z,1013.86
2018-02-09T05:04:15.160Z,1013.81
2018-02-09T05:05:15.142Z,1013.82
2018-02-09T05:06:15.125Z,1013.83
2018-02-09T05:07:15.108Z,1013.83
2018-02-09T05:08:15.091Z,1013.75
2018-02-09T05:09:15.074Z,1013.79
2018-02-09T05:10:15.057Z,1013.74
2018-02-09T05:11:15.041Z,1013.77
2018-02-09T05:12:15.024Z,1013.76
2018-02-09T05:13:15.007Z,1013.69
2018-02-09T05:14:14.990Z,1013.66
2018-02-09T05:15:14.973Z,1013.67
2018-02-09T05:16:14.956Z,1013.69
2018-02-09T05:17:14.950Z,1013.67
2018-02-09T05:18:14.922Z,1013.66
2018-02-09T05:19:14.904Z,1013.67
2018-02-09T05:20:14.887Z,1013.67
2018-02-09T05:21:14.870Z,1013.72
2018-02-09T05:22:14.853Z,1013.62
2018-02-09T05:23:14.836Z,1013.67
2018-02-09T05:24:14.820Z,1013.68
2018-02-09T05:25:14.802Z,1013.67
2018-02-09T05:26:14.789Z,1013.7
2018-02-09T05:27:14.769Z,1013.7
2018-02-09T05:28:14.752Z,1013.67
2018-02-09T05:29:14.735Z,1013.64
2018-02-09T05:30:14.717Z,1013.64
2018-02-09T05:31:14.700Z,1013.61
2018-02-09T05:32:14.683Z,1013.6
2018-02-09T05:33:14.666Z,1013.6
2018-02-09T05:34:14.649Z,1013.6
2018-02-09T05:35:14.631Z,1013.67
2018-02-09T05:36:14.615Z,1013.6
2018-02-09T05:37:14.598Z,1013.59
2018-02-09T05:38:14.581Z,1013.63
2018-02-09T05:39:14.564Z,1013.61
2018-02-09T05:40:14.547Z,1013.6
2018-02-09T05:41:14.529Z,1013.63
2018-02-09T05:42:14.516Z,1013.65
2018-02-09T05:43:14.496Z,1013.62
2018-02-09T05:44:14.483Z,1013.63
2018-02-09T05:45:14.461Z,1013.61
2018-02-09T05:46:14.446Z,1013.61
2018-02-09T05:47:14.429Z,1013.58
2018-02-09T05:48:14.411Z,1013.58
2018-02-09T05:49:14.393Z,1013.57
2018-02-09T05:50:14.391Z,1013.55
2018-02-09T05:51:14.382Z,1013.59
2018-02-09T05:52:14.366Z,1013.55
2018-02-09T05:53:14.326Z,1013.56
2018-02-09T05:54:14.336Z,1013.5
2018-02-09T05:55:14.298Z,1013.49
2018-02-09T05:56:14.274Z,1013.47
2018-02-09T05:57:14.278Z,1013.52
2018-02-09T05:58:14.250Z,1013.47
2018-02-09T05:59:14.239Z,1013.5
2018-02-09T06:00:14.206Z,1013.47
2018-02-09T06:01:14.211Z,1013.44
2018-02-09T06:02:14.173Z,1013.48
2018-02-09T06:03:14.155Z,1013.44
2018-02-09T06:04:14.139Z,1013.46
2018-02-09T06:05:14.145Z,1013.44
2018-02-09T06:06:14.131Z,1013.39
2018-02-09T06:07:14.108Z,1013.37
2018-02-09T06:08:14.096Z,1013.41
2018-02-09T06:09:14.065Z,1013.42
2018-02-09T06:10:14.057Z,1013.42
2018-02-09T06:11:14.030Z,1013.41
2018-02-09T06:12:14.011Z,1013.39
2018-02-09T06:13:14.010Z,1013.39
2018-02-09T06:14:13.975Z,1013.36
2018-02-09T06:15:13.952Z,1013.34
2018-02-09T06:16:13.934Z,1013.35
2018-02-09T06:17:13.918Z,1013.32
2018-02-09T06:18:13.915Z,1013.27
2018-02-09T06:19:13.883Z,1013.27
2018-02-09T06:20:13.867Z,1013.29
2018-02-09T06:21:13.849Z,1013.3
2018-02-09T06:22:13.846Z,1013.31
2018-02-09T06:23:13.815Z,1013.31
2018-02-09T06:24:13.802Z,1013.25
2018-02-09T06:25:13.781Z,1013.26
2018-02-09T06:26:13.763Z,1013.25
2018-02-09T06:27:13.747Z,1013.26
2018-02-09T06:28:13.730Z,1013.24
2018-02-09T06:29:13.740Z,1013.2
2018-02-09T06:30:13.712Z,1013.25
2018-02-09T06:31:13.679Z,1013.21
2018-02-09T06:32:13.675Z,1013.23
2018-02-09T06:33:13.644Z,1013.21
2018-02-09T06:34:13.627Z,1013.24
2018-02-09T06:35:13.610Z,1013.15
2018-02-09T06:36:13.592Z,1013.23
2018-02-09T06:37:13.575Z,1013.25
2018-02-09T06:38:13.559Z,1013.2
2018-02-09T06:39:13.601Z,1013.25
2018-02-09T06:40:13.524Z,1013.18
2018-02-09T06:41:13.507Z,1013.24
2018-02-09T06:42:13.490Z,1013.23
2018-02-09T06:43:13.472Z,1013.21
2018-02-09T06:44:13.455Z,1013.24
2018-02-09T06:45:13.444Z,1013.22
2018-02-09T06:46:13.422Z,1013.14
2018-02-09T06:47:13.404Z,1013.19
2018-02-09T06:48:13.387Z,1013.16
2018-02-09T06:49:13.374Z,1013.11
2018-02-09T06:50:13.353Z,1013.13
2018-02-09T06:51:13.336Z,1013.15
2018-02-09T06:52:13.320Z,1013.03
2018-02-09T06:53:13.301Z,1013.04
2018-02-09T06:54:13.287Z,1013.05
2018-02-09T06:55:13.267Z,1013.02
2018-02-09T06:56:13.265Z,1013.21
2018-02-09T06:57:13.237Z,1013.11
2018-02-09T06:58:13.237Z,1013.03
2018-02-09T06:59:13.221Z,1013.02
2018-02-09T07:00:13.200Z,1013.03
2018-02-09T07:01:13.174Z,1013.03
2018-02-09T07:02:13.161Z,1012.96
2018-02-09T07:03:13.153Z,1012.93
2018-02-09T07:04:13.128Z,1013.04
2018-02-09T07:05:13.115Z,1012.98
2018-02-09T07:06:13.100Z,1013.04
2018-02-09T07:07:13.083Z,1012.99
2018-02-09T07:08:13.063Z,1013.02
2018-02-09T07:09:13.049Z,1012.96
2018-02-09T07:10:13.227Z,1013.01
2018-02-09T07:11:13.018Z,1013.03
2018-02-09T07:12:12.988Z,1013.01
2018-02-09T07:13:12.976Z,1012.98
2018-02-09T07:14:12.964Z,1012.96
2018-02-09T07:15:12.931Z,1012.96
2018-02-09T07:16:12.921Z,1012.99
2018-02-09T07:17:12.896Z,1013
2018-02-09T07:18:12.895Z,1012.99
2018-02-09T07:19:12.875Z,1012.98
2018-02-09T07:20:12.862Z,1013
2018-02-09T07:21:12.843Z,1012.99
2018-02-09T07:22:12.828Z,1012.92
2018-02-09T07:23:12.805Z,1013.01
2018-02-09T07:24:12.796Z,1012.96
2018-02-09T07:25:12.758Z,1012.97
2018-02-09T07:26:12.737Z,1012.93
2018-02-09T07:27:12.719Z,1012.97
2018-02-09T07:28:12.702Z,1012.94
2018-02-09T07:29:12.686Z,1012.91
2018-02-09T07:30:12.669Z,1012.92
2018-02-09T07:31:12.653Z,1012.93
2018-02-09T07:32:12.670Z,1012.97
2018-02-09T07:33:12.621Z,1012.88
2018-02-09T07:34:12.600Z,1012.9
2018-02-09T07:35:12.584Z,1012.9
2018-02-09T07:36:12.567Z,1012.89
2018-02-09T07:37:12.560Z,1012.83
2018-02-09T07:38:12.531Z,1012.82
2018-02-09T07:39:12.518Z,1012.86
2018-02-09T07:40:12.498Z,1012.78
2018-02-09T07:41:12.485Z,1012.86
2018-02-09T07:42:12.475Z,1012.86
2018-02-09T07:43:12.465Z,1012.81
2018-02-09T07:44:12.438Z,1012.77
2018-02-09T07:45:12.413Z,1012.81
2018-02-09T07:46:12.417Z,1012.69
2018-02-09T07:47:12.398Z,1012.78
2018-02-09T07:48:12.372Z,1012.66
2018-02-09T07:49:12.347Z,1012.72
2018-02-09T07:50:12.347Z,1012.76
2018-02-09T07:51:12.315Z,1012.8
2018-02-09T07:52:12.311Z,1012.82
2018-02-09T07:53:12.277Z,1012.8
2018-02-09T07:54:12.260Z,1012.86
2018-02-09T07:55:12.243Z,1012.81
2018-02-09T07:56:12.225Z,1012.71
2018-02-09T07:57:12.209Z,1012.83
2018-02-09T07:58:12.192Z,1012.68
2018-02-09T07:59:12.181Z,1012.76
2018-02-09T08:00:12.157Z,1012.77
2018-02-09T08:01:12.159Z,1012.74
2018-02-09T08:02:12.123Z,1012.72
2018-02-09T08:03:12.106Z,1012.77
2018-02-09T08:04:12.089Z,1012.81
2018-02-09T08:05:12.072Z,1012.72
2018-02-09T08:06:12.058Z,1012.72
2018-02-09T08:07:12.053Z,1012.61
2018-02-09T08:08:12.022Z,1012.74
2018-02-09T08:09:12.028Z,1012.78
2018-02-09T08:10:12.031Z,1012.79
2018-02-09T08:11:11.969Z,1012.76
2018-02-09T08:12:11.953Z,1012.82
2018-02-09T08:13:11.936Z,1012.77
2018-02-09T08:14:11.919Z,1012.74
2018-02-09T08:15:11.919Z,1012.72
2018-02-09T08:16:11.884Z,1012.73
2018-02-09T08:17:11.882Z,1012.78
2018-02-09T08:18:11.863Z,1012.71
2018-02-09T08:19:11.833Z,1012.75
2018-02-09T08:20:11.816Z,1012.67
2018-02-09T08:21:11.808Z,1012.68
2018-02-09T08:22:11.783Z,1012.74
2018-02-09T08:23:11.765Z,1012.69
2018-02-09T08:24:11.765Z,1012.63
2018-02-09T08:25:11.776Z,1012.71
2018-02-09T08:26:11.714Z,1012.69
2018-02-09T08:27:11.696Z,1012.68
2018-02-09T08:28:11.679Z,1012.66
2018-02-09T08:29:11.662Z,1012.69
2018-02-09T08:30:11.654Z,1012.68
2018-02-09T08:31:11.636Z,1012.67
2018-02-09T08:32:11.611Z,1012.69
2018-02-09T08:33:11.595Z,1012.66
2018-02-09T08:34:11.577Z,1012.71
2018-02-09T08:35:11.562Z,1012.75
2018-02-09T08:36:11.543Z,1012.67
2018-02-09T08:37:11.540Z,1012.67
2018-02-09T08:38:11.509Z,1012.6
2018-02-09T08:39:11.503Z,1012.65
2018-02-09T08:40:11.493Z,1012.61
2018-02-09T08:41:11.471Z,1012.52
2018-02-09T08:42:11.457Z,1012.49
2018-02-09T08:43:11.424Z,1012.56
2018-02-09T08:44:11.406Z,1012.48
2018-02-09T08:45:11.389Z,1012.47
2018-02-09T08:46:11.374Z,1012.47
2018-02-09T08:47:11.378Z,1012.53
2018-02-09T08:48:11.339Z,1012.51
2018-02-09T08:49:11.321Z,1012.45
2018-02-09T08:50:11.304Z,1012.45
2018-02-09T08:51:11.293Z,1012.46
2018-02-09T08:52:11.280Z,1012.56
2018-02-09T08:53:11.253Z,1012.47
2018-02-09T08:54:11.239Z,1012.38
2018-02-09T08:55:11.222Z,1012.47
2018-02-09T08:56:11.225Z,1012.41
2018-02-09T08:57:11.197Z,1012.46
2018-02-09T08:58:11.188Z,1012.43
2018-02-09T08:59:11.171Z,1012.41
2018-02-09T09:00:11.146Z,1012.44
2018-02-09T09:01:11.145Z,1012.39
2018-02-09T09:02:11.116Z,1012.35
2018-02-09T09:03:11.100Z,1012.35
2018-02-09T09:04:11.082Z,1012.38
2018-02-09T09:05:11.055Z,1012.37
2018-02-09T09:06:11.041Z,1012.39
2018-02-09T09:07:11.048Z,1012.39
2018-02-09T09:08:10.998Z,1012.38
2018-02-09T09:09:10.999Z,1012.35
2018-02-09T09:10:10.981Z,1012.35
2018-02-09T09:11:10.956Z,1012.33
2018-02-09T09:12:10.944Z,1012.38
2018-02-09T09:13:10.925Z,1012.36
2018-02-09T09:14:10.910Z,1012.3
2018-02-09T09:15:10.904Z,1012.38
2018-02-09T09:16:10.876Z,1012.34
2018-02-09T09:17:10.845Z,1012.33
2018-02-09T09:18:10.853Z,1012.33
2018-02-09T09:19:10.825Z,1012.36
2018-02-09T09:20:10.811Z,1012.32
2018-02-09T09:21:10.790Z,1012.31
2018-02-09T09:22:10.775Z,1012.23
2018-02-09T09:23:10.765Z,1012.31
2018-02-09T09:24:10.751Z,1012.24
2018-02-09T09:25:10.727Z,1012.24
2018-02-09T09:26:10.709Z,1012.25
2018-02-09T09:27:10.697Z,1012.29
2018-02-09T09:28:10.687Z,1012.2
2018-02-09T09:29:10.660Z,1012.21
2018-02-09T09:30:10.649Z,1012.26
2018-02-09T09:31:10.632Z,1012.19
2018-02-09T09:32:10.594Z,1012.18
2018-02-09T09:33:10.587Z,1012.22
2018-02-09T09:34:10.578Z,1012.27
2018-02-09T09:35:10.558Z,1012.25
2018-02-09T09:36:10.538Z,1012.23
2018-02-09T09:37:10.528Z,1012.22
2018-02-09T09:38:10.505Z,1012.23
2018-02-09T09:39:10.488Z,1012.18
2018-02-09T09:40:10.464Z,1012.14
2018-02-09T09:41:10.459Z,1012.11
2018-02-09T09:42:10.422Z,1012.09
2018-02-09T09:43:10.418Z,1012.12
2018-02-09T09:44:10.410Z,1012.01
2018-02-09T09:45:10.389Z,1012.08
2018-02-09T09:46:10.378Z,1012.01
